Time;durP1;ratioP1;P1;durP2;ratioP2;P2;SDS_P1;SDS_P2;PMS_P1;PMS_P2;Temp;Humidity;BMP_temperature;BMP_pressure;BME280_temperature;BME280_humidity;BME280_pressure;Samples;Min_cycle;Max_cycle;Signal;HPM_P1;HPM_P2
2022/11/22 00:00:13;;;;;;;15.80;9.27;;;;;;;;;;6243687;22;20052;-78
2022/11/22 00:02:38;;;;;;;14.20;8.80;;;;;;;;;;6267875;22;20012;-77
2022/11/22 00:05:04;;;;;;;15.63;8.52;;;;;;;;;;6267448;22;20386;-80
2022/11/22 00:07:29;;;;;;;18.25;9.55;;;;;;;;;;6268007;22;20374;-80
2022/11/22 00:09:55;;;;;;;17.48;8.60;;;;;;;;;;6267716;22;20020;-80
2022/11/22 00:12:20;;;;;;;15.55;8.75;;;;;;;;;;6267563;22;19996;-80
2022/11/22 00:14:46;;;;;;;16.50;9.48;;;;;;;;;;6267670;22;20008;-80
2022/11/22 00:17:11;;;;;;;14.65;8.40;;;;;;;;;;6267770;22;20083;-80
2022/11/22 00:19:40;;;;;;;14.35;8.63;;;;;;;;;;6243695;22;20023;-80
2022/11/22 00:22:06;;;;;;;13.13;7.38;;;;;;;;;;6268120;22;20007;-78
2022/11/22 00:24:31;;;;;;;13.95;7.90;;;;;;;;;;6268090;22;20016;-78
2022/11/22 00:26:57;;;;;;;13.82;8.20;;;;;;;;;;6268041;22;20003;-80
2022/11/22 00:29:22;;;;;;;14.57;8.82;;;;;;;;;;6267706;22;20445;-80
2022/11/22 00:31:48;;;;;;;12.57;8.23;;;;;;;;;;6267988;22;20000;-79
2022/11/22 00:34:13;;;;;;;13.55;7.60;;;;;;;;;;6243845;22;20080;-79
2022/11/22 00:36:39;;;;;;;12.35;7.32;;;;;;;;;;6267332;22;20412;-80
2022/11/22 00:39:04;;;;;;;13.48;8.10;;;;;;;;;;6244051;22;20035;-79
2022/11/22 00:41:30;;;;;;;13.57;8.27;;;;;;;;;;6243630;22;20007;-80
2022/11/22 00:43:55;;;;;;;12.70;8.02;;;;;;;;;;6243629;23;20008;-79
2022/11/22 00:46:21;;;;;;;14.30;8.00;;;;;;;;;;6243636;22;20371;-80
2022/11/22 00:48:46;;;;;;;13.25;7.53;;;;;;;;;;6243518;23;20103;-79
2022/11/22 00:51:11;;;;;;;12.63;7.50;;;;;;;;;;6243194;23;20004;-78
2022/11/22 00:53:37;;;;;;;12.13;7.30;;;;;;;;;;6267083;22;20015;-79
2022/11/22 00:56:02;;;;;;;14.43;7.57;;;;;;;;;;6243952;23;20007;-79
2022/11/22 00:58:28;;;;;;;12.88;7.78;;;;;;;;;;6267431;22;20055;-79
2022/11/22 01:00:53;;;;;;;12.18;7.13;;;;;;;;;;6267506;22;20031;-79
2022/11/22 01:03:19;;;;;;;13.32;7.63;;;;;;;;;;6243908;23;20023;-79
2022/11/22 01:05:45;;;;;;;12.75;7.50;;;;;;;;;;6266997;22;20386;-78
2022/11/22 01:08:10;;;;;;;12.65;7.07;;;;;;;;;;6241770;23;20012;-79
2022/11/22 01:10:36;;;;;;;11.52;6.88;;;;;;;;;;6267149;22;20339;-79
2022/11/22 01:13:02;;;;;;;12.18;7.10;;;;;;;;;;6243600;22;20062;-79
2022/11/22 01:15:27;;;;;;;11.80;6.60;;;;;;;;;;6267111;22;20000;-78
2022/11/22 01:17:53;;;;;;;10.32;6.50;;;;;;;;;;6267161;22;20091;-78
2022/11/22 01:20:18;;;;;;;12.60;6.80;;;;;;;;;;6241710;23;20007;-79
2022/11/22 01:22:44;;;;;;;12.50;7.05;;;;;;;;;;6243198;22;20023;-79
2022/11/22 01:25:09;;;;;;;11.40;6.70;;;;;;;;;;6241543;23;20010;-79
2022/11/22 01:27:35;;;;;;;9.68;5.78;;;;;;;;;;6243040;22;20062;-79
2022/11/22 01:30:01;;;;;;;9.90;6.20;;;;;;;;;;6243260;23;20012;-79
2022/11/22 01:32:26;;;;;;;11.38;6.18;;;;;;;;;;6243288;23;20004;-79
2022/11/22 01:34:52;;;;;;;10.23;6.10;;;;;;;;;;6267321;22;20002;-79
2022/11/22 01:37:17;;;;;;;11.02;6.50;;;;;;;;;;6267114;22;20008;-79
2022/11/22 01:39:42;;;;;;;9.85;6.22;;;;;;;;;;6241693;23;20043;-80
2022/11/22 01:42:09;;;;;;;10.00;6.25;;;;;;;;;;6266983;22;20016;-79
2022/11/22 01:44:35;;;;;;;10.13;5.90;;;;;;;;;;6242770;22;20032;-79
2022/11/22 01:47:32;;;;;;;10.30;5.72;;;;;;;;;;6242278;22;20012;-79
2022/11/22 01:50:01;;;;;;;10.32;5.75;;;;;;;;;;6191983;22;20016;-79
2022/11/22 01:52:27;;;;;;;9.85;5.95;;;;;;;;;;6267134;22;20367;-79
2022/11/22 01:54:54;;;;;;;8.40;5.57;;;;;;;;;;6266882;22;20012;-80
2022/11/22 01:57:22;;;;;;;9.27;5.70;;;;;;;;;;6266981;22;19996;-80
2022/11/22 01:59:57;;;;;;;8.88;5.57;;;;;;;;;;6266314;22;20031;-79
2022/11/22 02:02:23;;;;;;;8.82;5.90;;;;;;;;;;6241807;23;20012;-79
2022/11/22 02:04:48;;;;;;;7.15;4.93;;;;;;;;;;6266758;22;20010;-78
2022/11/22 02:07:24;;;;;;;8.07;5.07;;;;;;;;;;6243143;22;20008;-79
2022/11/22 02:09:50;;;;;;;8.45;5.15;;;;;;;;;;6266665;22;20070;-79
2022/11/22 02:12:16;;;;;;;8.05;5.32;;;;;;;;;;6241499;23;20007;-80
2022/11/22 02:14:41;;;;;;;9.45;5.40;;;;;;;;;;6266681;22;20008;-80
2022/11/22 02:17:07;;;;;;;10.02;6.35;;;;;;;;;;6216091;23;20416;-79
2022/11/22 02:19:42;;;;;;;10.07;4.97;;;;;;;;;;6266927;22;20046;-79
2022/11/22 02:22:11;;;;;;;7.60;4.90;;;;;;;;;;6243132;22;20430;-79
2022/11/22 02:24:41;;;;;;;6.75;4.57;;;;;;;;;;6242918;22;20004;-80
2022/11/22 02:27:06;;;;;;;7.95;4.50;;;;;;;;;;6266612;22;20403;-80
2022/11/22 02:29:32;;;;;;;7.53;4.60;;;;;;;;;;6243141;22;20058;-80
2022/11/22 02:31:57;;;;;;;6.82;4.20;;;;;;;;;;6266956;22;20344;-80
2022/11/22 02:34:23;;;;;;;6.18;3.90;;;;;;;;;;6267328;22;20002;-80
2022/11/22 02:36:49;;;;;;;4.90;3.65;;;;;;;;;;6242525;22;20087;-80
2022/11/22 02:39:15;;;;;;;5.53;3.80;;;;;;;;;;6267326;22;19999;-80
2022/11/22 02:41:40;;;;;;;6.60;3.88;;;;;;;;;;6266992;22;20466;-80
2022/11/22 02:44:06;;;;;;;5.97;3.70;;;;;;;;;;6266846;22;20075;-80
2022/11/22 02:46:32;;;;;;;6.72;3.70;;;;;;;;;;6266799;22;20004;-80
2022/11/22 02:48:57;;;;;;;6.35;3.88;;;;;;;;;;6241511;23;20000;-79
2022/11/22 02:51:23;;;;;;;6.40;3.40;;;;;;;;;;6266503;22;20356;-79
2022/11/22 02:53:49;;;;;;;4.88;3.78;;;;;;;;;;6242614;22;20003;-79
2022/11/22 02:56:15;;;;;;;4.00;3.13;;;;;;;;;;6266511;22;20016;-79
2022/11/22 02:58:40;;;;;;;4.35;3.08;;;;;;;;;;6241456;23;20047;-79
2022/11/22 03:01:06;;;;;;;3.95;2.72;;;;;;;;;;6243053;22;20071;-79
2022/11/22 03:03:31;;;;;;;4.57;3.17;;;;;;;;;;6268273;22;20000;-79
2022/11/22 03:05:57;;;;;;;3.72;2.67;;;;;;;;;;6242892;23;20340;-79
2022/11/22 03:08:22;;;;;;;5.28;3.65;;;;;;;;;;6242821;23;20004;-79
2022/11/22 03:10:48;;;;;;;5.68;3.35;;;;;;;;;;6244425;22;20012;-79
2022/11/22 03:13:13;;;;;;;4.35;3.13;;;;;;;;;;6244441;22;20406;-79
2022/11/22 03:15:39;;;;;;;4.20;3.08;;;;;;;;;;6243077;23;20012;-79
2022/11/22 03:18:04;;;;;;;4.07;2.58;;;;;;;;;;6244323;22;20091;-79
2022/11/22 03:20:30;;;;;;;5.32;3.35;;;;;;;;;;6268425;22;20019;-80
2022/11/22 03:22:56;;;;;;;5.60;3.30;;;;;;;;;;6242984;23;20066;-80
2022/11/22 03:25:21;;;;;;;3.20;2.63;;;;;;;;;;6268420;22;20016;-80
2022/11/22 03:27:47;;;;;;;4.25;2.97;;;;;;;;;;6244398;22;20099;-80
2022/11/22 03:30:13;;;;;;;4.20;2.60;;;;;;;;;;6267968;22;20019;-81
2022/11/22 03:32:38;;;;;;;26.42;3.15;;;;;;;;;;6244221;22;20000;-80
2022/11/22 03:35:04;;;;;;;11.25;2.50;;;;;;;;;;6244518;22;20073;-80
2022/11/22 03:37:29;;;;;;;6.20;2.63;;;;;;;;;;6268146;22;20000;-80
2022/11/22 03:39:55;;;;;;;6.55;2.58;;;;;;;;;;6244124;23;20008;-80
2022/11/22 03:42:20;;;;;;;6.78;3.25;;;;;;;;;;6268644;22;20004;-80
2022/11/22 03:44:46;;;;;;;4.60;3.00;;;;;;;;;;6267955;22;20019;-80
2022/11/22 03:47:11;;;;;;;4.32;2.75;;;;;;;;;;6268760;22;20000;-79
2022/11/22 03:49:37;;;;;;;4.38;2.63;;;;;;;;;;6268495;22;20345;-80
2022/11/22 03:52:02;;;;;;;3.47;2.47;;;;;;;;;;6244794;22;20084;-79
2022/11/22 03:54:28;;;;;;;3.72;2.42;;;;;;;;;;6244051;22;20034;-80
2022/11/22 03:56:53;;;;;;;3.85;2.88;;;;;;;;;;6244037;22;19996;-80
2022/11/22 03:59:19;;;;;;;4.03;3.05;;;;;;;;;;6242239;23;20016;-80
2022/11/22 04:01:44;;;;;;;5.45;3.00;;;;;;;;;;6244249;22;20019;-80
2022/11/22 04:04:10;;;;;;;4.80;3.20;;;;;;;;;;6242224;23;20012;-80
2022/11/22 04:06:35;;;;;;;6.13;2.75;;;;;;;;;;6267937;22;20000;-80
2022/11/22 04:09:01;;;;;;;3.60;2.60;;;;;;;;;;6242339;23;20051;-81
2022/11/22 04:11:26;;;;;;;4.13;2.50;;;;;;;;;;6241732;23;20008;-79
2022/11/22 04:16:36;;;;;;;3.97;3.03;;;;;;;;;;6243624;23;20008;-81
2022/11/22 04:19:02;;;;;;;4.15;2.80;;;;;;;;;;6244270;22;20422;-81
2022/11/22 04:21:33;;;;;;;3.53;2.72;;;;;;;;;;6241875;23;20015;-81
2022/11/22 04:26:44;;;;;;;4.40;2.97;;;;;;;;;;6243735;23;20011;-79
2022/11/22 04:29:09;;;;;;;6.13;3.72;;;;;;;;;;6244677;22;20041;-79
2022/11/22 04:34:19;;;;;;;6.18;3.35;;;;;;;;;;6244013;23;20008;-79
2022/11/22 04:36:44;;;;;;;4.43;2.83;;;;;;;;;;6243352;22;20004;-80
2022/11/22 04:39:10;;;;;;;6.05;3.55;;;;;;;;;;6243770;23;20097;-79
2022/11/22 04:41:35;;;;;;;4.88;2.90;;;;;;;;;;6267255;22;20007;-79
2022/11/22 04:46:45;;;;;;;4.32;3.17;;;;;;;;;;6243219;23;20020;-79
2022/11/22 04:49:10;;;;;;;4.00;2.83;;;;;;;;;;6244140;22;20007;-80
2022/11/22 04:54:20;;;;;;;3.33;2.40;;;;;;;;;;6242165;23;20036;-81
2022/11/22 04:56:45;;;;;;;4.85;2.70;;;;;;;;;;6244620;22;20003;-81
2022/11/22 04:59:11;;;;;;;7.38;3.38;;;;;;;;;;6243274;22;20020;-80
2022/11/22 05:01:36;;;;;;;5.82;4.13;;;;;;;;;;6266295;22;20344;-82
2022/11/22 05:04:02;;;;;;;4.78;2.95;;;;;;;;;;6267296;22;20023;-80
2022/11/22 05:06:27;;;;;;;5.00;2.90;;;;;;;;;;6243335;22;20420;-80
2022/11/22 05:08:53;;;;;;;4.93;2.78;;;;;;;;;;6266471;22;20018;-81
2022/11/22 05:11:18;;;;;;;6.90;3.55;;;;;;;;;;6242395;22;20004;-79
2022/11/22 05:13:44;;;;;;;3.78;2.78;;;;;;;;;;6266862;22;20019;-80
2022/11/22 05:16:10;;;;;;;3.65;2.42;;;;;;;;;;6241999;22;20336;-83
2022/11/22 05:18:36;;;;;;;4.30;3.08;;;;;;;;;;6242276;22;20554;-80
2022/11/22 05:21:09;;;;;;;5.05;2.97;;;;;;;;;;6267377;22;20038;-80
2022/11/22 05:26:19;;;;;;;6.00;2.90;;;;;;;;;;6263116;22;20016;-81
2022/11/22 05:28:44;;;;;;;4.90;2.70;;;;;;;;;;6266431;22;20078;-80
2022/11/22 05:31:15;;;;;;;6.95;3.20;;;;;;;;;;6266783;22;20012;-81
2022/11/22 05:33:41;;;;;;;4.90;2.90;;;;;;;;;;6266569;22;20008;-80
2022/11/22 05:36:06;;;;;;;5.63;3.03;;;;;;;;;;6267240;22;20012;-82
2022/11/22 05:38:34;;;;;;;5.57;2.67;;;;;;;;;;6268441;22;20321;-82
2022/11/22 05:41:00;;;;;;;5.53;2.50;;;;;;;;;;6242122;23;20486;-81
2022/11/22 05:43:26;;;;;;;4.40;2.60;;;;;;;;;;6244095;22;20023;-83
2022/11/22 05:45:52;;;;;;;7.20;3.03;;;;;;;;;;6242070;23;20019;-81
2022/11/22 05:48:17;;;;;;;7.32;4.07;;;;;;;;;;6243606;22;20447;-82
2022/11/22 05:50:43;;;;;;;19.70;12.38;;;;;;;;;;6267397;22;20094;-81
2022/11/22 05:53:08;;;;;;;10.75;6.40;;;;;;;;;;6240509;23;20386;-81
2022/11/22 05:55:34;;;;;;;4.28;2.70;;;;;;;;;;6266374;22;20016;-82
2022/11/22 05:58:00;;;;;;;4.82;2.88;;;;;;;;;;6265683;22;20000;-82
2022/11/22 06:00:26;;;;;;;4.95;2.63;;;;;;;;;;6182464;23;1379971;-82
2022/11/22 06:02:51;;;;;;;5.25;2.53;;;;;;;;;;6241673;23;20012;-82
2022/11/22 06:05:17;;;;;;;4.18;2.55;;;;;;;;;;6267155;22;20099;-81
2022/11/22 06:07:42;;;;;;;5.30;2.83;;;;;;;;;;6267410;22;20079;-83
2022/11/22 06:10:08;;;;;;;5.63;2.88;;;;;;;;;;6267783;22;20020;-83
2022/11/22 06:12:34;;;;;;;5.93;2.97;;;;;;;;;;6241431;23;20312;-81
2022/11/22 06:14:59;;;;;;;4.93;2.90;;;;;;;;;;6267366;22;20023;-81
2022/11/22 06:17:25;;;;;;;5.68;2.92;;;;;;;;;;6241512;22;20074;-81
2022/11/22 06:19:50;;;;;;;6.82;2.90;;;;;;;;;;6267493;22;20018;-81
2022/11/22 06:22:16;;;;;;;7.93;3.33;;;;;;;;;;6243128;22;20000;-81
2022/11/22 06:24:41;;;;;;;5.13;2.80;;;;;;;;;;6243831;22;20016;-81
2022/11/22 06:27:07;;;;;;;7.80;3.00;;;;;;;;;;6243074;23;20000;-82
2022/11/22 06:29:32;;;;;;;5.05;3.00;;;;;;;;;;6267246;22;20016;-82
2022/11/22 06:31:58;;;;;;;7.97;3.28;;;;;;;;;;6267637;22;20000;-82
2022/11/22 06:34:24;;;;;;;6.60;3.20;;;;;;;;;;6244590;23;20012;-82
2022/11/22 06:36:49;;;;;;;;;;;;;;;;;;6269187;22;20000;-80
2022/11/22 06:39:15;;;;;;;7.47;3.80;;;;;;;;;;6243539;23;19934;-82
2022/11/22 06:41:40;;;;;;;7.22;3.88;;;;;;;;;;6244867;22;20007;-82
2022/11/22 06:44:06;;;;;;;8.75;4.40;;;;;;;;;;6243978;23;20016;-82
2022/11/22 06:46:32;;;;;;;7.53;4.10;;;;;;;;;;6269279;22;20004;-82
2022/11/22 06:48:57;;;;;;;7.78;4.32;;;;;;;;;;6268866;22;20040;-81
2022/11/22 06:51:23;;;;;;;11.20;5.55;;;;;;;;;;6244816;22;20524;-80
2022/11/22 06:53:49;;;;;;;9.55;4.80;;;;;;;;;;6244836;22;20090;-81
2022/11/22 06:56:19;;;;;;;12.70;6.28;;;;;;;;;;6268938;22;20039;-83
2022/11/22 06:58:44;;;;;;;9.90;4.63;;;;;;;;;;6245153;22;20015;-81
2022/11/22 07:01:11;;;;;;;9.85;5.28;;;;;;;;;;6243640;23;20016;-83
2022/11/22 07:03:36;;;;;;;8.98;4.90;;;;;;;;;;6243336;23;20378;-82
2022/11/22 07:06:02;;;;;;;9.32;5.18;;;;;;;;;;6244693;22;20083;-82
2022/11/22 07:08:28;;;;;;;8.48;4.95;;;;;;;;;;6244335;22;20012;-81
2022/11/22 07:10:53;;;;;;;8.65;5.32;;;;;;;;;;6245027;22;20058;-82
2022/11/22 07:13:19;;;;;;;8.93;6.45;;;;;;;;;;6243386;23;20008;-81
2022/11/22 07:15:54;;;;;;;10.00;6.13;;;;;;;;;;6268665;22;20085;-82
2022/11/22 07:18:20;;;;;;;9.57;6.13;;;;;;;;;;6268905;22;20116;-81
2022/11/22 07:20:45;;;;;;;8.15;5.35;;;;;;;;;;6218083;23;20032;-82
2022/11/22 07:23:11;;;;;;;10.65;5.28;;;;;;;;;;6245261;22;20012;-83
2022/11/22 07:25:37;;;;;;;6.63;4.47;;;;;;;;;;6243297;23;20006;-82
2022/11/22 07:28:03;;;;;;;11.57;5.38;;;;;;;;;;6245128;23;20344;-82
2022/11/22 07:30:28;;;;;;;9.10;5.25;;;;;;;;;;6268868;22;20082;-82
2022/11/22 07:32:53;;;;;;;8.70;5.35;;;;;;;;;;6269089;22;20062;-82
2022/11/22 07:35:19;;;;;;;10.35;5.80;;;;;;;;;;6268268;22;20079;-81
2022/11/22 07:37:45;;;;;;;9.68;5.50;;;;;;;;;;6268618;22;20466;-82
2022/11/22 07:40:11;;;;;;;8.18;4.60;;;;;;;;;;6268512;22;20154;-81
2022/11/22 07:42:36;;;;;;;7.43;4.57;;;;;;;;;;6242629;23;20040;-81
2022/11/22 07:45:03;;;;;;;6.78;4.30;;;;;;;;;;6242469;23;20007;-81
2022/11/22 07:47:29;;;;;;;7.97;5.03;;;;;;;;;;6245250;23;20008;-81
2022/11/22 07:49:54;;;;;;;11.55;7.18;;;;;;;;;;6268786;22;20012;-81
2022/11/22 07:52:20;;;;;;;11.68;7.30;;;;;;;;;;6243142;22;20012;-81
2022/11/22 07:54:45;;;;;;;13.68;8.15;;;;;;;;;;6244250;22;20309;-81
2022/11/22 07:57:11;;;;;;;10.07;6.85;;;;;;;;;;6268267;22;20036;-82
2022/11/22 07:59:36;;;;;;;11.35;6.68;;;;;;;;;;6244234;22;20553;-81
2022/11/22 08:02:02;;;;;;;9.02;5.18;;;;;;;;;;6244878;22;20018;-82
2022/11/22 08:04:27;;;;;;;8.27;5.18;;;;;;;;;;6244591;23;20015;-81
2022/11/22 08:06:53;;;;;;;9.43;5.32;;;;;;;;;;6244479;22;20004;-82
2022/11/22 08:09:18;;;;;;;11.93;5.75;;;;;;;;;;6268227;22;20007;-81
2022/11/22 08:11:44;;;;;;;11.35;5.95;;;;;;;;;;6242679;23;20474;-82
2022/11/22 08:14:10;;;;;;;9.70;6.35;;;;;;;;;;6244415;23;19997;-82
2022/11/22 08:16:35;;;;;;;9.65;5.55;;;;;;;;;;6242393;23;20012;-82
2022/11/22 08:19:01;;;;;;;11.07;5.93;;;;;;;;;;6244388;22;20004;-80
2022/11/22 08:21:26;;;;;;;12.52;6.72;;;;;;;;;;6243776;23;20012;-82
2022/11/22 08:23:55;;;;;;;13.20;6.75;;;;;;;;;;6244157;22;20031;-81
2022/11/22 08:26:21;;;;;;;17.02;9.52;;;;;;;;;;6268053;22;20016;-82
2022/11/22 08:28:46;;;;;;;22.20;14.55;;;;;;;;;;6244054;23;20373;-82
2022/11/22 08:31:13;;;;;;;12.18;7.47;;;;;;;;;;6242141;23;20455;-82
2022/11/22 08:33:38;;;;;;;10.38;6.78;;;;;;;;;;6243642;22;20026;-82
2022/11/22 08:36:04;;;;;;;12.52;7.45;;;;;;;;;;6244229;23;20419;-82
2022/11/22 08:38:29;;;;;;;8.65;6.15;;;;;;;;;;6268085;22;20071;-81
2022/11/22 08:40:56;;;;;;;8.77;6.10;;;;;;;;;;6268503;22;20012;-82
2022/11/22 08:43:21;;;;;;;;;;;;;;;;;;6244734;22;20000;-80
2022/11/22 08:45:47;;;;;;;7.85;5.70;;;;;;;;;;6244081;22;19990;-82
2022/11/22 08:48:13;;;;;;;10.77;6.13;;;;;;;;;;6268119;22;20003;-83
2022/11/22 08:50:38;;;;;;;7.88;5.57;;;;;;;;;;6242099;23;20498;-82
2022/11/22 08:53:04;;;;;;;9.50;5.30;;;;;;;;;;6244542;23;20000;-82
2022/11/22 08:55:29;;;;;;;9.15;6.07;;;;;;;;;;6243894;22;20463;-82
2022/11/22 08:57:58;;;;;;;6.90;4.90;;;;;;;;;;6242914;23;20071;-83
2022/11/22 09:00:24;;;;;;;8.02;5.18;;;;;;;;;;6267011;22;20024;-81
2022/11/22 09:02:49;;;;;;;11.32;5.30;;;;;;;;;;6243714;22;20535;-82
2022/11/22 09:05:15;;;;;;;7.47;4.40;;;;;;;;;;6267945;22;20104;-82
2022/11/22 09:07:40;;;;;;;7.60;5.03;;;;;;;;;;6267739;22;20007;-82
2022/11/22 09:10:07;;;;;;;9.80;5.65;;;;;;;;;;6267341;22;20012;-82
2022/11/22 09:12:32;;;;;;;;;;;;;;;;;;6244099;22;20000;-80
2022/11/22 09:14:57;;;;;;;10.70;5.47;;;;;;;;;;6243948;22;20290;-82
2022/11/22 09:17:23;;;;;;;9.73;5.25;;;;;;;;;;6267752;22;20416;-82
2022/11/22 09:19:48;;;;;;;8.32;5.15;;;;;;;;;;6267457;22;20016;-80
2022/11/22 09:22:14;;;;;;;10.13;6.00;;;;;;;;;;6243984;22;20004;-82
2022/11/22 09:24:39;;;;;;;9.95;5.32;;;;;;;;;;6268171;22;20359;-82
2022/11/22 09:27:05;;;;;;;10.13;5.38;;;;;;;;;;6242382;23;20424;-81
2022/11/22 09:29:30;;;;;;;10.23;6.40;;;;;;;;;;6267700;22;20016;-81
2022/11/22 09:31:56;;;;;;;9.80;5.78;;;;;;;;;;6243760;23;20339;-83
2022/11/22 09:34:21;;;;;;;7.68;5.45;;;;;;;;;;6243761;23;20043;-82
2022/11/22 09:36:47;;;;;;;8.65;5.00;;;;;;;;;;6267483;22;19996;-83
2022/11/22 09:39:12;;;;;;;8.93;5.82;;;;;;;;;;6243196;22;20008;-82
2022/11/22 09:41:56;;;;;;;8.52;4.90;;;;;;;;;;6243260;22;20431;-82
2022/11/22 09:44:31;;;;;;;10.82;4.97;;;;;;;;;;6244074;23;20071;-82
2022/11/22 09:47:15;;;;;;;7.38;5.20;;;;;;;;;;6216118;23;20091;-82
2022/11/22 09:49:44;;;;;;;9.57;4.82;;;;;;;;;;6242105;23;20016;-82
2022/11/22 09:52:11;;;;;;;8.77;5.07;;;;;;;;;;6243479;23;19996;-82
2022/11/22 09:54:41;;;;;;;8.43;4.95;;;;;;;;;;6267551;22;20053;-82
2022/11/22 09:57:13;;;;;;;10.07;4.97;;;;;;;;;;6243319;22;20078;-81
2022/11/22 09:59:38;;;;;;;7.15;4.78;;;;;;;;;;6267341;22;20048;-81
2022/11/22 10:02:07;;;;;;;9.18;5.20;;;;;;;;;;6267323;22;20478;-82
2022/11/22 10:05:08;;;;;;;8.35;5.53;;;;;;;;;;6243323;22;20066;-80
2022/11/22 10:07:34;;;;;;;8.45;5.30;;;;;;;;;;6155412;23;20009;-82
2022/11/22 10:10:03;;;;;;;7.75;5.13;;;;;;;;;;6199985;23;20004;-81
2022/11/22 10:12:29;;;;;;;8.98;5.18;;;;;;;;;;6270319;22;20004;-81
2022/11/22 10:15:07;;;;;;;7.07;4.75;;;;;;;;;;6245602;22;20105;-81
2022/11/22 10:17:40;;;;;;;9.57;5.13;;;;;;;;;;6243959;23;20095;-82
2022/11/22 10:20:11;;;;;;;7.28;5.00;;;;;;;;;;6269867;22;20011;-82
2022/11/22 10:22:36;;;;;;;7.47;4.65;;;;;;;;;;6243789;23;20012;-82
2022/11/22 10:25:08;;;;;;;9.35;5.10;;;;;;;;;;6245234;23;20023;-82
2022/11/22 10:27:34;;;;;;;8.10;4.65;;;;;;;;;;6243710;23;20023;-83
2022/11/22 10:29:59;;;;;;;8.30;4.90;;;;;;;;;;6245395;22;20008;-83
2022/11/22 10:32:31;;;;;;;8.32;4.32;;;;;;;;;;6245268;23;20019;-82
2022/11/22 10:34:57;;;;;;;6.05;4.28;;;;;;;;;;6243576;23;20347;-83
2022/11/22 10:37:38;;;;;;;9.13;4.50;;;;;;;;;;6246128;22;20050;-83
2022/11/22 10:40:18;;;;;;;6.03;4.10;;;;;;;;;;6245871;22;20099;-82
2022/11/22 10:43:02;;;;;;;6.88;4.70;;;;;;;;;;6243698;23;20074;-81
2022/11/22 10:45:31;;;;;;;7.93;5.00;;;;;;;;;;6244861;23;20589;-82
2022/11/22 10:48:17;;;;;;;8.70;4.60;;;;;;;;;;6245123;22;20497;-81
2022/11/22 10:50:54;;;;;;;10.82;5.72;;;;;;;;;;6212865;22;20035;-81
2022/11/22 10:53:52;;;;;;;11.80;6.18;;;;;;;;;;6243913;23;20062;-82
2022/11/22 10:56:18;;;;;;;8.70;5.43;;;;;;;;;;6210075;22;20023;-82
2022/11/22 10:59:06;;;;;;;8.45;5.20;;;;;;;;;;6245404;22;20353;-81
2022/11/22 11:01:35;;;;;;;9.73;5.40;;;;;;;;;;6228095;22;20086;-82
2022/11/22 11:04:00;;;;;;;9.02;5.68;;;;;;;;;;6268750;22;20455;-81
2022/11/22 11:06:42;;;;;;;13.25;7.15;;;;;;;;;;6269392;22;20008;-83
2022/11/22 11:09:27;;;;;;;11.43;5.65;;;;;;;;;;6269012;22;20016;-83
2022/11/22 11:11:52;;;;;;;10.23;6.65;;;;;;;;;;6243299;23;20012;-83
2022/11/22 11:14:18;;;;;;;8.38;4.45;;;;;;;;;;6243103;23;20003;-82
2022/11/22 11:16:43;;;;;;;10.65;4.75;;;;;;;;;;6245342;23;20087;-82
2022/11/22 11:19:14;;;;;;;9.38;5.07;;;;;;;;;;6244779;22;20023;-83
2022/11/22 11:21:39;;;;;;;11.00;5.40;;;;;;;;;;6245399;22;20015;-81
2022/11/22 11:24:12;;;;;;;9.68;5.47;;;;;;;;;;6268461;22;20030;-82
2022/11/22 11:26:38;;;;;;;8.68;5.47;;;;;;;;;;6243141;23;20062;-81
2022/11/22 11:29:23;;;;;;;11.05;5.22;;;;;;;;;;6267987;22;20438;-81
2022/11/22 11:31:50;;;;;;;8.32;5.03;;;;;;;;;;6222155;23;20130;-81
2022/11/22 11:34:15;;;;;;;;;;;;;;;;;;6245006;22;20013;-82
2022/11/22 11:36:41;;;;;;;11.27;6.45;;;;;;;;;;6245003;22;19914;-82
2022/11/22 11:39:17;;;;;;;11.75;5.60;;;;;;;;;;6244205;22;20004;-82
2022/11/22 11:41:42;;;;;;;10.70;5.53;;;;;;;;;;6268584;22;20008;-82
2022/11/22 11:44:16;;;;;;;10.05;5.50;;;;;;;;;;6268128;22;20023;-81
2022/11/22 11:46:41;;;;;;;9.90;6.07;;;;;;;;;;6268196;22;20408;-83
2022/11/22 11:49:12;;;;;;;12.10;6.20;;;;;;;;;;6243292;23;19999;-80
2022/11/22 11:51:41;;;;;;;14.50;6.72;;;;;;;;;;6242669;23;20016;-83
2022/11/22 11:54:10;;;;;;;11.75;5.82;;;;;;;;;;6268264;22;20008;-82
2022/11/22 11:56:36;;;;;;;12.90;6.50;;;;;;;;;;6244590;22;20007;-81
2022/11/22 11:59:03;;;;;;;8.43;5.57;;;;;;;;;;6244235;22;20388;-81
2022/11/22 12:01:28;;;;;;;10.68;6.03;;;;;;;;;;6268205;22;20019;-83
2022/11/22 12:03:58;;;;;;;10.90;6.15;;;;;;;;;;6268833;22;20020;-82
2022/11/22 12:06:30;;;;;;;10.18;6.07;;;;;;;;;;6268629;22;20509;-81
2022/11/22 12:08:56;;;;;;;12.00;6.93;;;;;;;;;;6268140;22;20043;-81
2022/11/22 12:11:22;;;;;;;;;;;;;;;;;;6243353;23;20348;-81
2022/11/22 12:13:52;;;;;;;14.75;6.97;;;;;;;;;;6244459;22;19986;-81
2022/11/22 12:16:20;;;;;;;23.13;12.90;;;;;;;;;;6267937;22;20008;-82
2022/11/22 12:18:49;;;;;;;17.20;9.02;;;;;;;;;;6242158;23;19996;-82
2022/11/22 12:21:33;;;;;;;15.57;8.23;;;;;;;;;;6243079;23;20089;-82
2022/11/22 12:23:58;;;;;;;16.00;8.32;;;;;;;;;;6244008;23;20019;-81
2022/11/22 12:26:25;;;;;;;18.92;9.70;;;;;;;;;;6243208;23;20008;-82
2022/11/22 12:28:51;;;;;;;17.33;8.73;;;;;;;;;;6242442;23;20011;-81
2022/11/22 12:31:16;;;;;;;20.45;8.82;;;;;;;;;;6267727;22;20014;-82
2022/11/22 12:33:42;;;;;;;16.02;8.75;;;;;;;;;;6242382;23;20009;-81
2022/11/22 12:36:19;;;;;;;19.13;9.13;;;;;;;;;;6268286;22;20010;-82
2022/11/22 12:38:45;;;;;;;19.00;9.15;;;;;;;;;;6242458;23;20016;-80
2022/11/22 12:41:12;;;;;;;16.73;8.95;;;;;;;;;;6243766;23;20035;-81
2022/11/22 12:43:58;;;;;;;17.17;9.02;;;;;;;;;;6243753;22;20059;-82
2022/11/22 12:46:32;;;;;;;19.60;8.95;;;;;;;;;;6241516;23;20066;-81
2022/11/22 12:48:59;;;;;;;25.35;9.63;;;;;;;;;;6242113;23;20012;-81
2022/11/22 12:51:51;;;;;;;16.48;8.02;;;;;;;;;;6267819;22;20015;-80
2022/11/22 12:54:21;;;;;;;20.05;9.57;;;;;;;;;;6239340;22;20089;-82
2022/11/22 12:56:53;;;;;;;16.38;8.10;;;;;;;;;;6242094;23;20509;-82
2022/11/22 12:59:25;;;;;;;16.63;8.90;;;;;;;;;;6243499;22;20448;-82
2022/11/22 13:01:59;;;;;;;15.18;8.88;;;;;;;;;;6243578;23;20631;-82
2022/11/22 13:04:28;;;;;;;19.50;10.70;;;;;;;;;;6268164;22;20456;-81
2022/11/22 13:07:14;;;;;;;22.08;9.40;;;;;;;;;;6242276;23;20475;-81
2022/11/22 13:09:40;;;;;;;22.33;9.82;;;;;;;;;;6243277;22;20323;-82
2022/11/22 13:12:06;;;;;;;;;;;;;;;;;;6268150;22;19996;-80
2022/11/22 13:14:33;;;;;;;22.52;10.93;;;;;;;;;;6242138;23;19965;-82
2022/11/22 13:16:58;;;;;;;16.80;8.98;;;;;;;;;;6267654;22;20407;-80
2022/11/22 13:19:24;;;;;;;18.13;10.10;;;;;;;;;;6267787;22;20012;-82
2022/11/22 13:21:56;;;;;;;23.25;9.90;;;;;;;;;;6267305;22;20004;-81
2022/11/22 13:24:21;;;;;;;15.20;8.70;;;;;;;;;;6241618;23;20170;-81
2022/11/22 13:26:47;;;;;;;21.73;9.82;;;;;;;;;;6241846;23;20032;-82
2022/11/22 13:29:19;;;;;;;22.48;9.10;;;;;;;;;;6242255;23;20037;-81
2022/11/22 13:32:03;;;;;;;21.70;10.18;;;;;;;;;;6267090;22;20448;-83
2022/11/22 13:34:28;;;;;;;31.05;9.90;;;;;;;;;;6243690;22;20014;-82
2022/11/22 13:36:54;;;;;;;19.30;10.25;;;;;;;;;;6243866;22;20004;-81
2022/11/22 13:39:20;;;;;;;28.38;10.80;;;;;;;;;;6243376;23;20062;-82
2022/11/22 13:41:45;;;;;;;25.60;12.55;;;;;;;;;;6241349;22;20031;-81
2022/11/22 13:44:15;;;;;;;23.92;11.13;;;;;;;;;;6243459;22;20497;-82
2022/11/22 13:46:49;;;;;;;19.98;10.48;;;;;;;;;;6266533;22;20008;-82
2022/11/22 13:49:27;;;;;;;29.88;12.70;;;;;;;;;;6267468;22;20027;-82
2022/11/22 13:51:53;;;;;;;32.78;11.27;;;;;;;;;;6243201;23;20016;-81
2022/11/22 13:54:31;;;;;;;28.10;11.57;;;;;;;;;;6267248;22;20000;-82
2022/11/22 13:57:00;;;;;;;27.52;11.35;;;;;;;;;;6241417;23;20031;-82
2022/11/22 13:59:26;;;;;;;26.30;11.38;;;;;;;;;;6266734;22;20464;-83
2022/11/22 14:01:53;;;;;;;33.20;16.60;;;;;;;;;;6243380;23;20012;-81
2022/11/22 14:04:25;;;;;;;31.60;13.35;;;;;;;;;;6267405;22;20089;-81
2022/11/22 14:07:03;;;;;;;35.90;13.27;;;;;;;;;;6241552;23;20091;-80
2022/11/22 14:09:33;;;;;;;35.67;14.35;;;;;;;;;;6267096;22;20016;-81
2022/11/22 14:12:16;;;;;;;30.58;12.18;;;;;;;;;;6267895;22;20019;-83
2022/11/22 14:14:51;;;;;;;37.33;13.40;;;;;;;;;;6267127;22;20015;-82
2022/11/22 14:17:29;;;;;;;34.45;13.15;;;;;;;;;;6267315;22;20057;-82
2022/11/22 14:20:13;;;;;;;32.47;14.55;;;;;;;;;;6267053;22;20070;-82
2022/11/22 14:22:39;;;;;;;38.63;14.27;;;;;;;;;;6242365;23;20016;-83
2022/11/22 14:25:04;;;;;;;33.10;13.02;;;;;;;;;;6267246;22;20043;-83
2022/11/22 14:27:30;;;;;;;37.60;12.00;;;;;;;;;;6243308;23;20471;-83
2022/11/22 14:30:12;;;;;;;37.83;13.05;;;;;;;;;;6267014;22;20008;-82
2022/11/22 14:32:45;;;;;;;33.63;10.90;;;;;;;;;;6243653;22;20012;-82
2022/11/22 14:35:34;;;;;;;31.40;11.38;;;;;;;;;;6266921;22;20008;-81
2022/11/22 14:38:06;;;;;;;39.03;11.52;;;;;;;;;;6225896;23;20471;-82
2022/11/22 14:40:31;;;;;;;29.88;11.57;;;;;;;;;;6266924;22;20333;-83
2022/11/22 14:43:05;;;;;;;44.42;12.77;;;;;;;;;;6267294;22;20028;-81
2022/11/22 14:45:40;;;;;;;37.50;11.75;;;;;;;;;;6243451;23;20012;-80
2022/11/22 14:48:18;;;;;;;47.25;16.05;;;;;;;;;;6266960;22;20012;-83
2022/11/22 14:50:47;;;;;;;34.63;12.80;;;;;;;;;;6243155;22;20103;-82
2022/11/22 14:53:31;;;;;;;39.17;14.73;;;;;;;;;;6243454;22;19996;-82
2022/11/22 14:56:03;;;;;;;66.97;13.50;;;;;;;;;;6243835;23;20011;-82
2022/11/22 14:58:29;;;;;;;50.08;12.38;;;;;;;;;;6268769;22;20408;-81